Time;durP1;ratioP1;P1;durP2;ratioP2;P2;SDS_P1;SDS_P2;PMS_P1;PMS_P2;Temp;Humidity;BMP_temperature;BMP_pressure;BME280_temperature;BME280_humidity;BME280_pressure;Samples;Min_cycle;Max_cycle;Signal;HPM_P1;HPM_P2
2022/04/02 00:04:38;;;;;;;1.10;0.70;;;;;;;;;;20751765;28;20571;-67
2022/04/02 00:14:41;;;;;;;0.30;0.30;;;;;;;;;;20794660;28;20269;-67
2022/04/02 00:24:43;;;;;;;0.30;0.30;;;;;;;;;;20810017;28;20234;-66
2022/04/02 00:34:45;;;;;;;0.97;0.80;;;;;;;;;;20793455;28;20207;-67
2022/04/02 00:44:47;;;;;;;0.40;0.40;;;;;;;;;;20792777;28;20203;-67
2022/04/02 00:54:51;;;;;;;0.57;0.47;;;2.60;99.90;;;;;;20815170;28;20218;-66
2022/04/02 01:04:56;;;;;;;0.60;0.60;;;2.50;99.90;;;;;;20807881;28;20199;-67
2022/04/02 01:14:59;;;;;;;0.50;0.50;;;;;;;;;;20753639;28;20284;-66
2022/04/02 01:25:11;;;;;;;0.50;0.50;;;;;;;;;;20790230;28;20222;-66
2022/04/02 01:35:21;;;;;;;1.20;0.50;;;2.40;99.90;;;;;;20791066;28;20589;-66
2022/04/02 01:45:33;;;;;;;0.47;0.47;;;;;;;;;;20791382;28;20685;-66
2022/04/02 01:55:40;;;;;;;0.40;0.40;;;;;;;;;;20790063;28;20272;-66
2022/04/02 02:06:03;;;;;;;0.40;0.40;;;2.80;99.90;;;;;;20792086;28;20207;-66
2022/04/02 02:16:05;;;;;;;0.70;0.60;;;;;;;;;;20797267;28;20276;-66
2022/04/02 02:26:10;;;;;;;0.30;0.30;;;;;;;;;;20819419;28;20260;-66
2022/04/02 02:36:12;;;;;;;1.37;0.60;;;;;;;;;;20818630;28;20244;-66
2022/04/02 02:46:34;;;;;;;1.40;0.83;;;;;;;;;;20800592;28;20214;-66
2022/04/02 02:56:48;;;;;;;0.40;0.40;;;;;;;;;;20802700;28;20276;-66
2022/04/02 03:06:50;;;;;;;0.50;0.50;;;;;;;;;;20800560;28;20689;-66
2022/04/02 03:16:54;;;;;;;0.23;0.23;;;;;;;;;;20831960;28;20238;-66
2022/04/02 03:26:56;;;;;;;0.40;0.40;;;;;;;;;;20814646;28;20238;-66
2022/04/02 03:37:09;;;;;;;0.63;0.53;;;;;;;;;;20759919;22;20227;-70
2022/04/02 03:47:11;;;;;;;0.37;0.37;;;;;;;;;;20730316;28;20215;-70
2022/04/02 03:57:31;;;;;;;0.40;0.40;;;;;;;;;;20746432;28;20219;-70
2022/04/02 04:07:36;;;;;;;1.10;0.43;;;2.10;99.90;;;;;;20743807;28;20211;-69
2022/04/02 04:17:41;;;;;;;0.30;0.30;;;;;;;;;;20738268;28;20219;-69
2022/04/02 04:27:44;;;;;;;0.63;0.50;;;;;;;;;;20742720;28;20242;-69
2022/04/02 04:37:46;;;;;;;0.80;0.50;;;;;;;;;;20741298;28;20760;-69
2022/04/02 04:47:53;;;;;;;0.77;0.50;;;;;;;;;;20740746;28;20198;-69
2022/04/02 04:57:57;;;;;;;0.60;0.40;;;;;;;;;;20740431;28;20231;-70
2022/04/02 05:08:08;;;;;;;0.20;0.20;;;;;;;;;;20741097;28;20745;-69
2022/04/02 05:18:12;;;;;;;0.57;0.57;;;1.80;99.90;;;;;;20739491;28;20219;-69
2022/04/02 05:28:14;;;;;;;0.33;0.33;;;;;;;;;;20740572;28;20211;-70
2022/04/02 05:38:17;;;;;;;0.77;0.53;;;;;;;;;;20740336;28;20305;-70
2022/04/02 05:48:20;;;;;;;0.50;0.47;;;;;;;;;;20732986;28;20238;-70
2022/04/02 05:58:22;;;;;;;0.30;0.30;;;;;;;;;;20742309;28;20293;-70
2022/04/02 06:08:24;;;;;;;0.47;0.47;;;;;;;;;;20753668;28;20211;-72
2022/04/02 06:18:26;;;;;;;0.50;0.50;;;;;;;;;;20740971;28;20671;-69
2022/04/02 06:28:28;;;;;;;0.30;0.30;;;;;;;;;;20752708;28;20740;-69
2022/04/02 06:38:30;;;;;;;0.30;0.30;;;;;;;;;;20753448;28;20215;-68
2022/04/02 06:48:32;;;;;;;0.50;0.40;;;;;;;;;;20750996;28;20686;-70
2022/04/02 06:58:39;;;;;;;3.20;0.60;;;2.00;99.90;;;;;;20737939;28;20242;-69
2022/04/02 07:08:41;;;;;;;0.73;0.70;;;;;;;;;;20735366;28;20644;-69
2022/04/02 07:18:46;;;;;;;0.50;0.50;;;1.90;99.90;;;;;;20744988;28;20219;-69
2022/04/02 07:28:48;;;;;;;0.70;0.50;;;;;;;;;;20741896;28;20211;-69
2022/04/02 07:38:49;;;;;;;1.27;0.60;;;;;;;;;;20740657;28;20269;-68
2022/04/02 07:48:52;;;;;;;0.37;0.37;;;2.00;99.90;;;;;;20737879;28;20207;-69
2022/04/02 07:59:06;;;;;;;0.73;0.73;;;;;;;;;;20721399;28;20218;-69
2022/04/02 08:09:08;;;;;;;0.40;0.40;;;2.10;99.90;;;;;;20723728;28;20211;-70
2022/04/02 08:19:14;;;;;;;0.60;0.57;;;;;;;;;;20724793;28;20222;-70
2022/04/02 08:29:30;;;;;;;1.03;0.40;;;1.70;99.90;;;;;;20716884;28;20215;-73
2022/04/02 08:39:41;;;;;;;0.70;0.60;;;;;;;;;;20716803;28;20280;-70
2022/04/02 08:49:49;;;;;;;0.47;0.47;;;;;;;;;;20732236;28;20646;-69
2022/04/02 09:00:23;;;;;;;0.87;0.50;;;2.20;99.90;;;;;;20737280;28;20596;-68
2022/04/02 09:10:42;;;;;;;0.33;0.33;;;;;;;;;;20718584;28;20277;-71
2022/04/02 09:20:53;;;;;;;0.57;0.47;;;;;;;;;;20731235;28;20759;-71
2022/04/02 09:31:24;;;;;;;0.57;0.40;;;2.60;99.90;;;;;;20723049;28;20225;-69
2022/04/02 09:41:37;;;;;;;0.60;0.60;;;;;;;;;;20730723;28;20210;-69
2022/04/02 09:51:42;;;;;;;0.50;0.50;;;2.50;99.90;;;;;;20728303;28;20226;-69
2022/04/02 10:01:53;;;;;;;1.07;0.60;;;;;;;;;;20729883;28;20628;-70
2022/04/02 10:11:58;;;;;;;0.40;0.40;;;2.50;99.90;;;;;;20733150;28;20617;-69
2022/04/02 10:22:07;;;;;;;0.63;0.60;;;2.80;99.90;;;;;;20725323;28;20223;-69
2022/04/02 10:32:16;;;;;;;1.00;0.70;;;;;;;;;;20727568;28;20281;-70
2022/04/02 10:42:19;;;;;;;0.70;0.50;;;;;;;;;;20731131;28;20215;-69
2022/04/02 10:52:23;;;;;;;1.07;0.73;;;2.90;99.90;;;;;;20747596;28;20714;-70
2022/04/02 11:02:36;;;;;;;0.93;0.67;;;2.90;99.90;;;;;;20741023;28;20279;-70
2022/04/02 11:12:41;;;;;;;0.67;0.53;;;2.80;99.90;;;;;;20729913;28;20208;-70
2022/04/02 11:22:46;;;;;;;1.77;1.17;;;;;;;;;;20733839;28;20760;-70
2022/04/02 11:32:50;;;;;;;1.00;0.90;;;;;;;;;;20775957;23;20226;-68
2022/04/02 11:42:52;;;;;;;1.63;0.77;;;;;;;;;;20811994;28;20272;-68
2022/04/02 11:52:54;;;;;;;1.40;1.00;;;;;;;;;;20797488;28;20211;-65
2022/04/02 12:02:56;;;;;;;1.37;0.90;;;3.00;99.90;;;;;;20796948;28;20222;-66
2022/04/02 12:12:59;;;;;;;0.50;0.50;;;3.10;99.90;;;;;;20795523;28;20240;-66
2022/04/02 12:23:17;;;;;;;2.10;0.93;;;3.30;99.90;;;;;;20779244;28;20234;-67
2022/04/02 12:33:19;;;;;;;0.93;0.73;;;3.30;99.90;;;;;;20762601;28;20700;-68
2022/04/02 12:43:28;;;;;;;1.53;1.00;;;3.30;99.90;;;;;;20793097;28;20273;-68
2022/04/02 12:53:30;;;;;;;0.77;0.77;;;;;;;;;;20809384;28;20751;-68
2022/04/02 13:03:34;;;;;;;0.90;0.60;;;;;;;;;;20791695;28;20301;-68
2022/04/02 13:13:41;;;;;;;1.00;0.90;;;3.40;99.90;;;;;;20791716;28;20244;-68
2022/04/02 13:24:10;;;;;;;1.17;0.80;;;3.60;99.90;;;;;;20790622;28;20276;-67
2022/04/02 13:34:38;;;;;;;1.00;0.70;;;3.60;99.90;;;;;;20806301;28;20648;-67
2022/04/02 13:44:44;;;;;;;0.90;0.80;;;3.90;99.90;;;;;;20790063;28;20276;-68
2022/04/02 13:54:49;;;;;;;1.60;0.90;;;;;;;;;;20789525;28;20261;-67
2022/04/02 14:05:03;;;;;;;2.80;1.30;;;4.00;99.90;;;;;;20806633;28;20637;-67
2022/04/02 14:15:13;;;;;;;1.93;0.87;;;4.10;99.90;;;;;;20801748;28;20414;-67
2022/04/02 14:25:42;;;;;;;0.50;0.50;;;;;;;;;;20804250;28;20567;-68
2022/04/02 14:35:44;;;;;;;1.53;1.03;;;;;;;;;;20833583;28;20276;-67
2022/04/02 14:46:11;;;;;;;1.70;0.80;;;4.10;99.90;;;;;;20819253;28;20211;-68
2022/04/02 14:56:50;;;;;;;1.10;1.00;;;3.90;99.90;;;;;;20801510;28;20583;-68
2022/04/02 15:07:29;;;;;;;1.13;0.70;;;4.00;99.90;;;;;;20800773;28;20198;-68
2022/04/02 15:17:34;;;;;;;0.50;0.50;;;4.10;99.90;;;;;;20781649;28;20639;-68
2022/04/02 15:27:52;;;;;;;1.97;0.90;;;;;;;;;;20815625;28;20198;-68
2022/04/02 15:37:54;;;;;;;0.77;0.63;;;;;;;;;;20798715;28;20552;-68
2022/04/02 15:47:57;;;;;;;0.40;0.40;;;3.90;99.90;;;;;;20813939;28;20682;-68
2022/04/02 15:58:08;;;;;;;0.33;0.33;;;4.20;99.90;;;;;;20796759;28;20231;-67
2022/04/02 16:08:19;;;;;;;1.30;0.87;;;4.20;99.90;;;;;;20812506;28;20198;-66
2022/04/02 16:18:23;;;;;;;0.40;0.40;;;;;;;;;;20795714;28;20222;-67
2022/04/02 16:28:36;;;;;;;1.27;0.63;;;4.00;99.90;;;;;;20810816;28;20276;-67
2022/04/02 16:38:48;;;;;;;0.47;0.47;;;4.10;99.90;;;;;;20825835;28;20371;-67
2022/04/02 16:49:01;;;;;;;11.27;7.23;;;4.00;99.90;;;;;;20771758;28;20572;-67
2022/04/02 16:59:04;;;;;;;2.37;1.53;;;;;;;;;;20808574;28;20226;-67
2022/04/02 17:09:07;;;;;;;1.93;1.00;;;;;;;;;;20749387;28;20242;-67
2022/04/02 17:19:27;;;;;;;1.13;0.90;;;3.90;99.90;;;;;;20784348;28;20215;-67
2022/04/02 17:29:33;;;;;;;0.80;0.70;;;;;;;;;;20813610;28;20590;-66
2022/04/02 17:39:36;;;;;;;1.20;1.03;;;;;;;;;;20806405;28;20226;-66
2022/04/02 17:49:43;;;;;;;1.53;1.10;;;;;;;;;;20821072;28;20218;-67
2022/04/02 17:59:51;;;;;;;1.33;0.73;;;3.80;99.90;;;;;;20796864;28;20214;-63
2022/04/02 18:09:55;;;;;;;3.83;0.87;;;3.70;99.90;;;;;;20799954;28;20280;-63
2022/04/02 18:19:58;;;;;;;0.83;0.60;;;;;;;;;;20816013;28;20686;-64
2022/04/02 18:29:59;;;;;;;0.70;0.70;;;;;;;;;;20805322;28;20678;-64
2022/04/02 18:40:03;;;;;;;1.07;0.70;;;3.50;99.90;;;;;;20816485;28;20775;-64
2022/04/02 18:50:05;;;;;;;1.57;0.90;;;;;;;;;;20798897;28;20230;-64
2022/04/02 19:00:08;;;;;;;5.23;0.90;;;;;;;;;;20817840;28;20248;-65
2022/04/02 19:10:10;;;;;;;0.87;0.60;;;;;;;;;;20804342;28;20275;-65
2022/04/02 19:20:12;;;;;;;1.13;0.70;;;3.40;99.90;;;;;;20812914;28;20253;-65
2022/04/02 19:30:15;;;;;;;0.87;0.70;;;3.40;99.90;;;;;;20808802;28;20214;-64
2022/04/02 19:40:17;;;;;;;0.50;0.43;;;;;;;;;;20754792;22;20227;-68
2022/04/02 19:50:19;;;;;;;1.37;0.77;;;;;;;;;;20733296;28;20231;-69
2022/04/02 20:00:21;;;;;;;2.63;0.80;;;;;;;;;;20737049;28;20297;-69
2022/04/02 20:10:23;;;;;;;0.80;0.80;;;;;;;;;;20741862;28;20257;-68
2022/04/02 20:20:25;;;;;;;0.93;0.80;;;;;;;;;;20743660;28;20714;-69
2022/04/02 20:30:27;;;;;;;1.60;0.80;;;;;;;;;;20744272;28;20227;-68
2022/04/02 20:40:29;;;;;;;1.17;0.80;;;;;;;;;;20741234;28;20634;-68
2022/04/02 20:50:33;;;;;;;1.00;0.83;;;;;;;;;;20741799;28;20215;-69
2022/04/02 21:00:36;;;;;;;0.53;0.50;;;3.10;99.90;;;;;;20739617;28;20211;-68
2022/04/02 21:10:38;;;;;;;1.03;0.87;;;;;;;;;;20735494;28;20623;-68
2022/04/02 21:20:40;;;;;;;1.10;0.90;;;;;;;;;;20740275;28;20694;-69
2022/04/02 21:30:42;;;;;;;0.50;0.50;;;;;;;;;;20733181;28;20293;-68
2022/04/02 21:40:45;;;;;;;1.03;0.80;;;;;;;;;;20737729;28;20702;-68
2022/04/02 21:50:47;;;;;;;1.23;0.90;;;;;;;;;;20740046;28;20208;-68
2022/04/02 22:00:49;;;;;;;0.60;0.60;;;;;;;;;;20740250;28;20203;-68
2022/04/02 22:10:52;;;;;;;0.77;0.77;;;;;;;;;;20738916;28;20277;-68
2022/04/02 22:20:54;;;;;;;1.30;0.63;;;;;;;;;;20734045;28;20245;-69
2022/04/02 22:30:57;;;;;;;1.03;0.67;;;;;;;;;;20742658;28;20203;-69
2022/04/02 22:40:59;;;;;;;4.93;1.03;;;;;;;;;;20743867;28;20227;-70
2022/04/02 22:51:00;;;;;;;3.00;1.00;;;2.90;99.90;;;;;;20752627;28;20357;-69
2022/04/02 23:01:02;;;;;;;0.67;0.67;;;;;;;;;;20749482;28;20219;-69
2022/04/02 23:11:04;;;;;;;3.13;1.13;;;2.90;99.90;;;;;;20747329;28;20214;-69
2022/04/02 23:21:08;;;;;;;1.60;0.77;;;;;;;;;;20747336;28;20717;-69
2022/04/02 23:31:10;;;;;;;0.87;0.70;;;;;;;;;;20748122;28;20698;-69
2022/04/02 23:41:12;;;;;;;1.30;0.63;;;;;;;;;;20746692;28;20227;-69
2022/04/02 23:51:13;;;;;;;1.13;0.80;;;2.80;99.90;;;;;;20745928;28;20269;-69
